<?xml version="1.0" encoding="UTF-8" standalone="no" ?>
<gpx xmlns="http://www.topografix.com/GPX/1/1" xmlns:xsi="http://www.w3.org/2001/XMLSchema-instance" xsi:schemaLocation="http://www.topografix.com/GPX/1/1 http://www.topografix.com/GPX/1/1/gpx.xsd" version="1.1" creator="VisuGPX - https://www.visugpx.com">
  <metadata>
    <name>Engayrac Campagnac 9,7 km</name>
  </metadata>
  <trk>
    <name><![CDATA[2023 03 16 campagnac Pierre]]></name>
    <extensions>
      <line xmlns="http://www.topografix.com/GPX/gpx_style/0/2">
        <color>0000FF</color>
        <width>4</width>
      </line>
    </extensions>
    <trkseg>
      <trkpt lat="44.2549" lon="0.92349">
        <ele>197.7</ele>
        <time>2023-03-16T13:17:31.951Z</time>
      </trkpt>
      <trkpt lat="44.25507" lon="0.92322">
        <ele>199.6</ele>
      </trkpt>
      <trkpt lat="44.25512" lon="0.92323">
        <ele>200.1</ele>
        <time>2023-03-16T13:18:21.951Z</time>
      </trkpt>
      <trkpt lat="44.25523" lon="0.92322">
        <ele>201.1</ele>
        <time>2023-03-16T13:18:29.951Z</time>
      </trkpt>
      <trkpt lat="44.25527" lon="0.9232">
        <ele>201.4</ele>
        <time>2023-03-16T13:18:33.951Z</time>
      </trkpt>
      <trkpt lat="44.25524" lon="0.92327">
        <ele>201.4</ele>
        <time>2023-03-16T13:19:09.951Z</time>
      </trkpt>
      <trkpt lat="44.2552" lon="0.92339">
        <ele>201.6</ele>
        <time>2023-03-16T13:19:25.951Z</time>
      </trkpt>
      <trkpt lat="44.25521" lon="0.92346">
        <ele>202.1</ele>
        <time>2023-03-16T13:19:29.951Z</time>
      </trkpt>
      <trkpt lat="44.2551" lon="0.92379">
        <ele>201.8</ele>
        <time>2023-03-16T13:19:53.951Z</time>
      </trkpt>
      <trkpt lat="44.25504" lon="0.92388">
        <ele>201.6</ele>
        <time>2023-03-16T13:20:01.951Z</time>
      </trkpt>
      <trkpt lat="44.25496" lon="0.9241">
        <ele>202.2</ele>
        <time>2023-03-16T13:20:17.951Z</time>
      </trkpt>
      <trkpt lat="44.25474" lon="0.92463">
        <ele>202.6</ele>
        <time>2023-03-16T13:20:57.951Z</time>
      </trkpt>
      <trkpt lat="44.25471" lon="0.92467">
        <ele>202.5</ele>
        <time>2023-03-16T13:21:01.951Z</time>
      </trkpt>
      <trkpt lat="44.25468" lon="0.92476">
        <ele>202.8</ele>
        <time>2023-03-16T13:21:07.951Z</time>
      </trkpt>
      <trkpt lat="44.2546" lon="0.92487">
        <ele>200.7</ele>
        <time>2023-03-16T13:21:15.951Z</time>
      </trkpt>
      <trkpt lat="44.25441" lon="0.92532">
        <ele>202.5</ele>
        <time>2023-03-16T13:21:47.951Z</time>
      </trkpt>
      <trkpt lat="44.2542" lon="0.92576">
        <ele>203.9</ele>
        <time>2023-03-16T13:22:19.951Z</time>
      </trkpt>
      <trkpt lat="44.25391" lon="0.9262">
        <ele>202.7</ele>
        <time>2023-03-16T13:22:55.951Z</time>
      </trkpt>
      <trkpt lat="44.25383" lon="0.92643">
        <ele>204.4</ele>
        <time>2023-03-16T13:23:11.951Z</time>
      </trkpt>
      <trkpt lat="44.25374" lon="0.9266">
        <ele>204.8</ele>
        <time>2023-03-16T13:23:27.951Z</time>
      </trkpt>
      <trkpt lat="44.25362" lon="0.92704">
        <ele>207.3</ele>
        <time>2023-03-16T13:23:59.951Z</time>
      </trkpt>
      <trkpt lat="44.25348" lon="0.92733">
        <ele>206.9</ele>
        <time>2023-03-16T13:24:23.951Z</time>
      </trkpt>
      <trkpt lat="44.25345" lon="0.92746">
        <ele>206.5</ele>
        <time>2023-03-16T13:24:43.951Z</time>
      </trkpt>
      <trkpt lat="44.25332" lon="0.9276">
        <ele>205.6</ele>
        <time>2023-03-16T13:24:59.951Z</time>
      </trkpt>
      <trkpt lat="44.25319" lon="0.92773">
        <ele>204.7</ele>
        <time>2023-03-16T13:25:15.951Z</time>
      </trkpt>
      <trkpt lat="44.25322" lon="0.92787">
        <ele>203.4</ele>
        <time>2023-03-16T13:25:47.951Z</time>
      </trkpt>
      <trkpt lat="44.25326" lon="0.92823">
        <ele>199.3</ele>
        <time>2023-03-16T13:27:07.951Z</time>
      </trkpt>
      <trkpt lat="44.25328" lon="0.92838">
        <ele>197.5</ele>
        <time>2023-03-16T13:27:15.951Z</time>
      </trkpt>
      <trkpt lat="44.2533" lon="0.92853">
        <ele>194.8</ele>
        <time>2023-03-16T13:27:31.951Z</time>
      </trkpt>
      <trkpt lat="44.25322" lon="0.92859">
        <ele>194.6</ele>
        <time>2023-03-16T13:27:41.951Z</time>
      </trkpt>
      <trkpt lat="44.25295" lon="0.9288">
        <ele>190</ele>
        <time>2023-03-16T13:28:05.951Z</time>
      </trkpt>
      <trkpt lat="44.25288" lon="0.92886">
        <ele>189.9</ele>
        <time>2023-03-16T13:30:13.951Z</time>
      </trkpt>
      <trkpt lat="44.25275" lon="0.929">
        <ele>188.5</ele>
        <time>2023-03-16T13:30:37.951Z</time>
      </trkpt>
      <trkpt lat="44.25263" lon="0.92911">
        <ele>185.1</ele>
      </trkpt>
      <trkpt lat="44.25241" lon="0.92922">
        <ele>181.8</ele>
        <time>2023-03-16T13:31:05.951Z</time>
      </trkpt>
      <trkpt lat="44.25218" lon="0.92929">
        <ele>180.4</ele>
        <time>2023-03-16T13:31:21.951Z</time>
      </trkpt>
      <trkpt lat="44.25207" lon="0.9293">
        <ele>180.4</ele>
        <time>2023-03-16T13:31:29.951Z</time>
      </trkpt>
      <trkpt lat="44.25201" lon="0.92929">
        <ele>180.8</ele>
        <time>2023-03-16T13:31:33.951Z</time>
      </trkpt>
      <trkpt lat="44.25167" lon="0.92933">
        <ele>182.3</ele>
        <time>2023-03-16T13:31:57.951Z</time>
      </trkpt>
      <trkpt lat="44.25133" lon="0.92949">
        <ele>180.9</ele>
        <time>2023-03-16T13:32:29.951Z</time>
      </trkpt>
      <trkpt lat="44.25117" lon="0.92965">
        <ele>177.9</ele>
        <time>2023-03-16T13:32:49.951Z</time>
      </trkpt>
      <trkpt lat="44.25111" lon="0.92967">
        <ele>177.8</ele>
        <time>2023-03-16T13:32:53.951Z</time>
      </trkpt>
      <trkpt lat="44.25106" lon="0.92978">
        <ele>175.4</ele>
        <time>2023-03-16T13:33:01.951Z</time>
      </trkpt>
      <trkpt lat="44.25083" lon="0.93009">
        <ele>171.4</ele>
        <time>2023-03-16T13:33:33.951Z</time>
      </trkpt>
      <trkpt lat="44.25037" lon="0.93085">
        <ele>160.4</ele>
        <time>2023-03-16T13:34:37.951Z</time>
      </trkpt>
      <trkpt lat="44.25021" lon="0.93115">
        <ele>155.2</ele>
        <time>2023-03-16T13:34:53.951Z</time>
      </trkpt>
      <trkpt lat="44.25011" lon="0.9314">
        <ele>150.9</ele>
        <time>2023-03-16T13:35:09.951Z</time>
      </trkpt>
      <trkpt lat="44.25004" lon="0.93149">
        <ele>149.1</ele>
        <time>2023-03-16T13:35:17.951Z</time>
      </trkpt>
      <trkpt lat="44.24996" lon="0.93157">
        <ele>147.4</ele>
        <time>2023-03-16T13:35:25.951Z</time>
      </trkpt>
      <trkpt lat="44.24978" lon="0.93165">
        <ele>144.6</ele>
        <time>2023-03-16T13:35:41.951Z</time>
      </trkpt>
      <trkpt lat="44.24974" lon="0.93165">
        <ele>144.2</ele>
        <time>2023-03-16T13:35:45.951Z</time>
      </trkpt>
      <trkpt lat="44.24965" lon="0.93159">
        <ele>142.6</ele>
        <time>2023-03-16T13:35:53.951Z</time>
      </trkpt>
      <trkpt lat="44.24958" lon="0.93151">
        <ele>141.2</ele>
        <time>2023-03-16T13:36:01.951Z</time>
      </trkpt>
      <trkpt lat="44.24948" lon="0.93131">
        <ele>138.9</ele>
        <time>2023-03-16T13:36:17.951Z</time>
      </trkpt>
      <trkpt lat="44.24944" lon="0.93127">
        <ele>138</ele>
        <time>2023-03-16T13:36:21.951Z</time>
      </trkpt>
      <trkpt lat="44.24935" lon="0.93127">
        <ele>136.4</ele>
        <time>2023-03-16T13:36:29.951Z</time>
      </trkpt>
      <trkpt lat="44.24911" lon="0.93141">
        <ele>133</ele>
        <time>2023-03-16T13:37:33.951Z</time>
      </trkpt>
      <trkpt lat="44.24861" lon="0.93177">
        <ele>128</ele>
        <time>2023-03-16T13:38:13.951Z</time>
      </trkpt>
      <trkpt lat="44.24852" lon="0.93181">
        <ele>128</ele>
        <time>2023-03-16T13:38:21.951Z</time>
      </trkpt>
      <trkpt lat="44.24843" lon="0.93189">
        <ele>128</ele>
        <time>2023-03-16T13:38:29.951Z</time>
      </trkpt>
      <trkpt lat="44.24823" lon="0.93196">
        <ele>129.1</ele>
        <time>2023-03-16T13:38:45.951Z</time>
      </trkpt>
      <trkpt lat="44.2482" lon="0.93199">
        <ele>129.6</ele>
        <time>2023-03-16T13:38:49.951Z</time>
      </trkpt>
      <trkpt lat="44.24817" lon="0.93203">
        <ele>130.1</ele>
        <time>2023-03-16T13:38:53.951Z</time>
      </trkpt>
      <trkpt lat="44.24816" lon="0.93234">
        <ele>131.4</ele>
        <time>2023-03-16T13:39:21.951Z</time>
      </trkpt>
      <trkpt lat="44.24814" lon="0.93251">
        <ele>132.3</ele>
        <time>2023-03-16T13:39:37.951Z</time>
      </trkpt>
      <trkpt lat="44.24813" lon="0.93276">
        <ele>134.1</ele>
        <time>2023-03-16T13:39:53.951Z</time>
      </trkpt>
      <trkpt lat="44.2481" lon="0.933">
        <ele>135</ele>
        <time>2023-03-16T13:40:09.951Z</time>
      </trkpt>
      <trkpt lat="44.24811" lon="0.93312">
        <ele>135.2</ele>
        <time>2023-03-16T13:40:17.951Z</time>
      </trkpt>
      <trkpt lat="44.2481" lon="0.9332">
        <ele>136</ele>
        <time>2023-03-16T13:40:21.951Z</time>
      </trkpt>
      <trkpt lat="44.24813" lon="0.93348">
        <ele>137.9</ele>
        <time>2023-03-16T13:40:37.951Z</time>
      </trkpt>
      <trkpt lat="44.24818" lon="0.93364">
        <ele>138.8</ele>
        <time>2023-03-16T13:40:49.951Z</time>
      </trkpt>
      <trkpt lat="44.24817" lon="0.9337">
        <ele>139.5</ele>
        <time>2023-03-16T13:40:53.951Z</time>
      </trkpt>
      <trkpt lat="44.24822" lon="0.93385">
        <ele>140</ele>
        <time>2023-03-16T13:41:01.951Z</time>
      </trkpt>
      <trkpt lat="44.24813" lon="0.93411">
        <ele>143.4</ele>
        <time>2023-03-16T13:41:17.951Z</time>
      </trkpt>
      <trkpt lat="44.24792" lon="0.9345">
        <ele>146.7</ele>
        <time>2023-03-16T13:41:49.951Z</time>
      </trkpt>
      <trkpt lat="44.24756" lon="0.93526">
        <ele>156.3</ele>
        <time>2023-03-16T13:42:53.951Z</time>
      </trkpt>
      <trkpt lat="44.2475" lon="0.93534">
        <ele>156.8</ele>
        <time>2023-03-16T13:43:01.951Z</time>
      </trkpt>
      <trkpt lat="44.24742" lon="0.93539">
        <ele>158.2</ele>
        <time>2023-03-16T13:43:09.951Z</time>
      </trkpt>
      <trkpt lat="44.24727" lon="0.93537">
        <ele>161.1</ele>
        <time>2023-03-16T13:43:25.951Z</time>
      </trkpt>
      <trkpt lat="44.24715" lon="0.93539">
        <ele>163.5</ele>
        <time>2023-03-16T13:43:37.951Z</time>
      </trkpt>
      <trkpt lat="44.24703" lon="0.93553">
        <ele>164.6</ele>
        <time>2023-03-16T13:43:53.951Z</time>
      </trkpt>
      <trkpt lat="44.247" lon="0.93562">
        <ele>164.4</ele>
        <time>2023-03-16T13:44:01.951Z</time>
      </trkpt>
      <trkpt lat="44.247" lon="0.93573">
        <ele>163.9</ele>
        <time>2023-03-16T13:44:09.951Z</time>
      </trkpt>
      <trkpt lat="44.24702" lon="0.9358">
        <ele>163</ele>
        <time>2023-03-16T13:44:13.951Z</time>
      </trkpt>
      <trkpt lat="44.24693" lon="0.93612">
        <ele>166.5</ele>
        <time>2023-03-16T13:44:37.951Z</time>
      </trkpt>
      <trkpt lat="44.24693" lon="0.93622">
        <ele>167.5</ele>
        <time>2023-03-16T13:44:45.951Z</time>
      </trkpt>
      <trkpt lat="44.24702" lon="0.93643">
        <ele>167.5</ele>
        <time>2023-03-16T13:45:01.951Z</time>
      </trkpt>
      <trkpt lat="44.24712" lon="0.93661">
        <ele>168.3</ele>
        <time>2023-03-16T13:45:17.951Z</time>
      </trkpt>
      <trkpt lat="44.24739" lon="0.93693">
        <ele>170.6</ele>
        <time>2023-03-16T13:45:49.951Z</time>
      </trkpt>
      <trkpt lat="44.24743" lon="0.93704">
        <ele>171.1</ele>
        <time>2023-03-16T13:45:57.951Z</time>
      </trkpt>
      <trkpt lat="44.24746" lon="0.93722">
        <ele>172</ele>
        <time>2023-03-16T13:46:09.951Z</time>
      </trkpt>
      <trkpt lat="44.24743" lon="0.93732">
        <ele>172.7</ele>
        <time>2023-03-16T13:46:17.951Z</time>
      </trkpt>
      <trkpt lat="44.24719" lon="0.93771">
        <ele>179.8</ele>
        <time>2023-03-16T13:46:49.951Z</time>
      </trkpt>
      <trkpt lat="44.24699" lon="0.9381">
        <ele>183.2</ele>
        <time>2023-03-16T13:47:21.951Z</time>
      </trkpt>
      <trkpt lat="44.24682" lon="0.93836">
        <ele>184.7</ele>
        <time>2023-03-16T13:47:45.951Z</time>
      </trkpt>
      <trkpt lat="44.24671" lon="0.9384">
        <ele>187.4</ele>
        <time>2023-03-16T13:47:57.951Z</time>
      </trkpt>
      <trkpt lat="44.24663" lon="0.93837">
        <ele>189.8</ele>
        <time>2023-03-16T13:48:53.951Z</time>
      </trkpt>
      <trkpt lat="44.24656" lon="0.93833">
        <ele>190.8</ele>
        <time>2023-03-16T13:51:21.951Z</time>
      </trkpt>
      <trkpt lat="44.24628" lon="0.93814">
        <ele>193.2</ele>
        <time>2023-03-16T13:52:09.951Z</time>
      </trkpt>
      <trkpt lat="44.24602" lon="0.93805">
        <ele>194.3</ele>
        <time>2023-03-16T13:52:33.951Z</time>
      </trkpt>
      <trkpt lat="44.24596" lon="0.93805">
        <ele>194.5</ele>
        <time>2023-03-16T13:52:37.951Z</time>
      </trkpt>
      <trkpt lat="44.24527" lon="0.93758">
        <ele>202.5</ele>
        <time>2023-03-16T13:53:41.951Z</time>
      </trkpt>
      <trkpt lat="44.2446" lon="0.93715">
        <ele>212.3</ele>
        <time>2023-03-16T13:54:45.951Z</time>
      </trkpt>
      <trkpt lat="44.24414" lon="0.93687">
        <ele>217.4</ele>
        <time>2023-03-16T13:55:33.951Z</time>
      </trkpt>
      <trkpt lat="44.24393" lon="0.93677">
        <ele>218.5</ele>
        <time>2023-03-16T13:56:01.951Z</time>
      </trkpt>
      <trkpt lat="44.24371" lon="0.93712">
        <ele>218.6</ele>
        <time>2023-03-16T13:59:05.951Z</time>
      </trkpt>
      <trkpt lat="44.24356" lon="0.9372">
        <ele>219</ele>
        <time>2023-03-16T14:01:39.951Z</time>
      </trkpt>
      <trkpt lat="44.24317" lon="0.93679">
        <ele>216.3</ele>
        <time>2023-03-16T14:02:19.951Z</time>
      </trkpt>
      <trkpt lat="44.24262" lon="0.93607">
        <ele>206.7</ele>
        <time>2023-03-16T14:03:31.951Z</time>
      </trkpt>
      <trkpt lat="44.24257" lon="0.93597">
        <ele>206</ele>
        <time>2023-03-16T14:03:39.951Z</time>
      </trkpt>
      <trkpt lat="44.24243" lon="0.93583">
        <ele>203.9</ele>
        <time>2023-03-16T14:03:55.951Z</time>
      </trkpt>
      <trkpt lat="44.24222" lon="0.93556">
        <ele>198</ele>
        <time>2023-03-16T14:04:19.951Z</time>
      </trkpt>
      <trkpt lat="44.24221" lon="0.9355">
        <ele>197.5</ele>
        <time>2023-03-16T14:04:27.951Z</time>
      </trkpt>
      <trkpt lat="44.24215" lon="0.93538">
        <ele>195.9</ele>
        <time>2023-03-16T14:04:35.951Z</time>
      </trkpt>
      <trkpt lat="44.24207" lon="0.9353">
        <ele>194.5</ele>
        <time>2023-03-16T14:04:45.951Z</time>
      </trkpt>
      <trkpt lat="44.24207" lon="0.93529">
        <ele>194.4</ele>
        <time>2023-03-16T14:04:47.951Z</time>
      </trkpt>
      <trkpt lat="44.24191" lon="0.93541">
        <ele>193.7</ele>
        <time>2023-03-16T14:05:03.951Z</time>
      </trkpt>
      <trkpt lat="44.24177" lon="0.93549">
        <ele>193.4</ele>
        <time>2023-03-16T14:05:15.951Z</time>
      </trkpt>
      <trkpt lat="44.24172" lon="0.93549">
        <ele>193.1</ele>
        <time>2023-03-16T14:05:19.951Z</time>
      </trkpt>
      <trkpt lat="44.24162" lon="0.93543">
        <ele>192.2</ele>
        <time>2023-03-16T14:05:27.951Z</time>
      </trkpt>
      <trkpt lat="44.24146" lon="0.93519">
        <ele>193.2</ele>
        <time>2023-03-16T14:05:47.951Z</time>
      </trkpt>
      <trkpt lat="44.24143" lon="0.93521">
        <ele>194</ele>
        <time>2023-03-16T14:05:51.951Z</time>
      </trkpt>
      <trkpt lat="44.2414" lon="0.93527">
        <ele>194.9</ele>
        <time>2023-03-16T14:05:59.951Z</time>
      </trkpt>
      <trkpt lat="44.24136" lon="0.93542">
        <ele>194.8</ele>
        <time>2023-03-16T14:08:07.951Z</time>
      </trkpt>
      <trkpt lat="44.24114" lon="0.93582">
        <ele>196.8</ele>
        <time>2023-03-16T14:08:39.951Z</time>
      </trkpt>
      <trkpt lat="44.24108" lon="0.93592">
        <ele>197.4</ele>
        <time>2023-03-16T14:08:47.951Z</time>
      </trkpt>
      <trkpt lat="44.24019" lon="0.93658">
        <ele>203.5</ele>
        <time>2023-03-16T14:10:15.951Z</time>
      </trkpt>
      <trkpt lat="44.2401" lon="0.9366">
        <ele>204.2</ele>
        <time>2023-03-16T14:10:23.951Z</time>
      </trkpt>
      <trkpt lat="44.24002" lon="0.93656">
        <ele>205.2</ele>
        <time>2023-03-16T14:10:31.951Z</time>
      </trkpt>
      <trkpt lat="44.23931" lon="0.93596">
        <ele>206.9</ele>
        <time>2023-03-16T14:11:43.951Z</time>
      </trkpt>
      <trkpt lat="44.23871" lon="0.93565">
        <ele>204.8</ele>
        <time>2023-03-16T14:12:39.951Z</time>
      </trkpt>
      <trkpt lat="44.23832" lon="0.93564">
        <ele>205.4</ele>
        <time>2023-03-16T14:13:11.951Z</time>
      </trkpt>
      <trkpt lat="44.23824" lon="0.93563">
        <ele>205.5</ele>
        <time>2023-03-16T14:13:19.951Z</time>
      </trkpt>
      <trkpt lat="44.23799" lon="0.93563">
        <ele>206.2</ele>
        <time>2023-03-16T14:13:43.951Z</time>
      </trkpt>
      <trkpt lat="44.23795" lon="0.93562">
        <ele>206.3</ele>
        <time>2023-03-16T14:13:59.951Z</time>
      </trkpt>
      <trkpt lat="44.23724" lon="0.93562">
        <ele>210.8</ele>
        <time>2023-03-16T14:15:03.951Z</time>
      </trkpt>
      <trkpt lat="44.23696" lon="0.93559">
        <ele>215.7</ele>
        <time>2023-03-16T14:15:35.951Z</time>
      </trkpt>
      <trkpt lat="44.23661" lon="0.93559">
        <ele>219.2</ele>
        <time>2023-03-16T14:16:15.951Z</time>
      </trkpt>
      <trkpt lat="44.2366" lon="0.93557">
        <ele>219.3</ele>
        <time>2023-03-16T14:16:23.951Z</time>
      </trkpt>
      <trkpt lat="44.23645" lon="0.93558">
        <ele>219.8</ele>
        <time>2023-03-16T14:16:47.951Z</time>
      </trkpt>
      <trkpt lat="44.2364" lon="0.9356">
        <ele>220</ele>
        <time>2023-03-16T14:16:55.951Z</time>
      </trkpt>
      <trkpt lat="44.23636" lon="0.93556">
        <ele>219.8</ele>
        <time>2023-03-16T14:19:03.951Z</time>
      </trkpt>
      <trkpt lat="44.23604" lon="0.9354">
        <ele>217.3</ele>
        <time>2023-03-16T14:19:47.951Z</time>
      </trkpt>
      <trkpt lat="44.23598" lon="0.9353">
        <ele>216.6</ele>
        <time>2023-03-16T14:19:55.951Z</time>
      </trkpt>
      <trkpt lat="44.23583" lon="0.93514">
        <ele>214.9</ele>
        <time>2023-03-16T14:20:11.951Z</time>
      </trkpt>
      <trkpt lat="44.23578" lon="0.93503">
        <ele>214.4</ele>
        <time>2023-03-16T14:20:19.951Z</time>
      </trkpt>
      <trkpt lat="44.23572" lon="0.93472">
        <ele>215.6</ele>
        <time>2023-03-16T14:20:39.951Z</time>
      </trkpt>
      <trkpt lat="44.23568" lon="0.93469">
        <ele>215.5</ele>
        <time>2023-03-16T14:20:43.951Z</time>
      </trkpt>
      <trkpt lat="44.2356" lon="0.93471">
        <ele>215.2</ele>
        <time>2023-03-16T14:20:51.951Z</time>
      </trkpt>
      <trkpt lat="44.23544" lon="0.93482">
        <ele>213.4</ele>
        <time>2023-03-16T14:21:07.951Z</time>
      </trkpt>
      <trkpt lat="44.2354" lon="0.93483">
        <ele>213.1</ele>
        <time>2023-03-16T14:21:11.951Z</time>
      </trkpt>
      <trkpt lat="44.23524" lon="0.93475">
        <ele>212.9</ele>
        <time>2023-03-16T14:21:27.951Z</time>
      </trkpt>
      <trkpt lat="44.23518" lon="0.93469">
        <ele>212.4</ele>
        <time>2023-03-16T14:21:35.951Z</time>
      </trkpt>
      <trkpt lat="44.235" lon="0.93439">
        <ele>213</ele>
        <time>2023-03-16T14:21:59.951Z</time>
      </trkpt>
      <trkpt lat="44.23479" lon="0.93386">
        <ele>217.4</ele>
        <time>2023-03-16T14:22:35.951Z</time>
      </trkpt>
      <trkpt lat="44.23471" lon="0.93381">
        <ele>217.1</ele>
        <time>2023-03-16T14:22:43.951Z</time>
      </trkpt>
      <trkpt lat="44.2346" lon="0.93353">
        <ele>216.3</ele>
        <time>2023-03-16T14:23:47.951Z</time>
      </trkpt>
      <trkpt lat="44.23456" lon="0.93342">
        <ele>216.6</ele>
        <time>2023-03-16T14:25:23.951Z</time>
      </trkpt>
      <trkpt lat="44.23456" lon="0.93327">
        <ele>217.4</ele>
        <time>2023-03-16T14:25:55.951Z</time>
      </trkpt>
      <trkpt lat="44.23461" lon="0.93275">
        <ele>219.6</ele>
        <time>2023-03-16T14:26:27.951Z</time>
      </trkpt>
      <trkpt lat="44.23465" lon="0.9325">
        <ele>219.7</ele>
        <time>2023-03-16T14:26:43.951Z</time>
      </trkpt>
      <trkpt lat="44.23475" lon="0.93227">
        <ele>220.9</ele>
        <time>2023-03-16T14:26:59.951Z</time>
      </trkpt>
      <trkpt lat="44.23502" lon="0.93194">
        <ele>221.1</ele>
        <time>2023-03-16T14:27:31.951Z</time>
      </trkpt>
      <trkpt lat="44.23513" lon="0.93178">
        <ele>221.7</ele>
        <time>2023-03-16T14:27:47.951Z</time>
      </trkpt>
      <trkpt lat="44.23524" lon="0.93168">
        <ele>221.9</ele>
        <time>2023-03-16T14:28:19.951Z</time>
      </trkpt>
      <trkpt lat="44.23527" lon="0.93169">
        <ele>222</ele>
        <time>2023-03-16T14:28:27.951Z</time>
      </trkpt>
      <trkpt lat="44.23533" lon="0.93178">
        <ele>222.5</ele>
        <time>2023-03-16T14:29:23.951Z</time>
      </trkpt>
      <trkpt lat="44.23546" lon="0.93185">
        <ele>222.9</ele>
        <time>2023-03-16T14:29:43.951Z</time>
      </trkpt>
      <trkpt lat="44.23552" lon="0.93186">
        <ele>223</ele>
        <time>2023-03-16T14:30:03.951Z</time>
      </trkpt>
      <trkpt lat="44.23587" lon="0.93198">
        <ele>222.9</ele>
        <time>2023-03-16T14:30:39.951Z</time>
      </trkpt>
      <trkpt lat="44.23592" lon="0.93194">
        <ele>222.7</ele>
        <time>2023-03-16T14:30:43.951Z</time>
      </trkpt>
      <trkpt lat="44.2362" lon="0.93211">
        <ele>222</ele>
        <time>2023-03-16T14:31:07.951Z</time>
      </trkpt>
      <trkpt lat="44.23627" lon="0.93212">
        <ele>222</ele>
        <time>2023-03-16T14:31:15.951Z</time>
      </trkpt>
      <trkpt lat="44.23634" lon="0.93204">
        <ele>222</ele>
        <time>2023-03-16T14:31:23.951Z</time>
      </trkpt>
      <trkpt lat="44.23656" lon="0.93163">
        <ele>221.4</ele>
        <time>2023-03-16T14:31:55.951Z</time>
      </trkpt>
      <trkpt lat="44.23671" lon="0.93115">
        <ele>220.7</ele>
        <time>2023-03-16T14:32:27.951Z</time>
      </trkpt>
      <trkpt lat="44.23678" lon="0.93103">
        <ele>220.2</ele>
        <time>2023-03-16T14:32:35.951Z</time>
      </trkpt>
      <trkpt lat="44.23686" lon="0.93094">
        <ele>219.6</ele>
        <time>2023-03-16T14:32:43.951Z</time>
      </trkpt>
      <trkpt lat="44.23695" lon="0.93089">
        <ele>218.9</ele>
        <time>2023-03-16T14:32:51.951Z</time>
      </trkpt>
      <trkpt lat="44.23788" lon="0.93057">
        <ele>209.6</ele>
        <time>2023-03-16T14:34:11.951Z</time>
      </trkpt>
      <trkpt lat="44.23807" lon="0.93054">
        <ele>206.8</ele>
        <time>2023-03-16T14:34:27.951Z</time>
      </trkpt>
      <trkpt lat="44.23843" lon="0.93041">
        <ele>202.8</ele>
        <time>2023-03-16T14:34:59.951Z</time>
      </trkpt>
      <trkpt lat="44.23881" lon="0.93022">
        <ele>198.5</ele>
        <time>2023-03-16T14:35:31.951Z</time>
      </trkpt>
      <trkpt lat="44.239" lon="0.93015">
        <ele>197.6</ele>
        <time>2023-03-16T14:35:47.951Z</time>
      </trkpt>
      <trkpt lat="44.23919" lon="0.93003">
        <ele>196.4</ele>
        <time>2023-03-16T14:36:03.951Z</time>
      </trkpt>
      <trkpt lat="44.23942" lon="0.92989">
        <ele>194.8</ele>
        <time>2023-03-16T14:36:23.951Z</time>
      </trkpt>
      <trkpt lat="44.23948" lon="0.92989">
        <ele>194.8</ele>
        <time>2023-03-16T14:36:27.951Z</time>
      </trkpt>
      <trkpt lat="44.23953" lon="0.92993">
        <ele>195.3</ele>
        <time>2023-03-16T14:36:31.951Z</time>
      </trkpt>
      <trkpt lat="44.23967" lon="0.93015">
        <ele>197.2</ele>
        <time>2023-03-16T14:36:47.951Z</time>
      </trkpt>
      <trkpt lat="44.23988" lon="0.93056">
        <ele>202.1</ele>
        <time>2023-03-16T14:37:19.951Z</time>
      </trkpt>
      <trkpt lat="44.24" lon="0.93075">
        <ele>203.7</ele>
        <time>2023-03-16T14:37:35.951Z</time>
      </trkpt>
      <trkpt lat="44.2403" lon="0.93098">
        <ele>205.3</ele>
        <time>2023-03-16T14:38:07.951Z</time>
      </trkpt>
      <trkpt lat="44.24045" lon="0.93106">
        <ele>204</ele>
        <time>2023-03-16T14:38:23.951Z</time>
      </trkpt>
      <trkpt lat="44.2406" lon="0.93116">
        <ele>202.4</ele>
        <time>2023-03-16T14:38:39.951Z</time>
      </trkpt>
      <trkpt lat="44.24069" lon="0.93124">
        <ele>201.1</ele>
        <time>2023-03-16T14:38:55.951Z</time>
      </trkpt>
      <trkpt lat="44.2408" lon="0.93092">
        <ele>200.4</ele>
        <time>2023-03-16T14:39:27.951Z</time>
      </trkpt>
      <trkpt lat="44.24083" lon="0.9309">
        <ele>200</ele>
        <time>2023-03-16T14:39:35.951Z</time>
      </trkpt>
      <trkpt lat="44.24093" lon="0.93092">
        <ele>199.3</ele>
        <time>2023-03-16T14:39:43.951Z</time>
      </trkpt>
      <trkpt lat="44.24118" lon="0.93109">
        <ele>197.5</ele>
        <time>2023-03-16T14:40:07.951Z</time>
      </trkpt>
      <trkpt lat="44.24121" lon="0.93114">
        <ele>197.3</ele>
        <time>2023-03-16T14:40:11.951Z</time>
      </trkpt>
      <trkpt lat="44.24155" lon="0.93136">
        <ele>194.9</ele>
        <time>2023-03-16T14:40:43.951Z</time>
      </trkpt>
      <trkpt lat="44.24163" lon="0.93144">
        <ele>193.2</ele>
        <time>2023-03-16T14:40:51.951Z</time>
      </trkpt>
      <trkpt lat="44.24163" lon="0.93157">
        <ele>190.3</ele>
        <time>2023-03-16T14:40:59.951Z</time>
      </trkpt>
      <trkpt lat="44.24155" lon="0.93193">
        <ele>187.9</ele>
        <time>2023-03-16T14:41:23.951Z</time>
      </trkpt>
      <trkpt lat="44.24119" lon="0.93282">
        <ele>188</ele>
        <time>2023-03-16T14:42:27.951Z</time>
      </trkpt>
      <trkpt lat="44.24114" lon="0.93291">
        <ele>187.9</ele>
        <time>2023-03-16T14:42:35.951Z</time>
      </trkpt>
      <trkpt lat="44.24105" lon="0.93316">
        <ele>186.5</ele>
        <time>2023-03-16T14:42:51.951Z</time>
      </trkpt>
      <trkpt lat="44.24102" lon="0.93351">
        <ele>187.8</ele>
        <time>2023-03-16T14:43:23.951Z</time>
      </trkpt>
      <trkpt lat="44.24104" lon="0.93356">
        <ele>187.8</ele>
        <time>2023-03-16T14:43:55.951Z</time>
      </trkpt>
      <trkpt lat="44.2411" lon="0.93357">
        <ele>186.7</ele>
        <time>2023-03-16T14:44:07.951Z</time>
      </trkpt>
      <trkpt lat="44.24111" lon="0.93356">
        <ele>186.2</ele>
        <time>2023-03-16T14:44:11.951Z</time>
      </trkpt>
      <trkpt lat="44.2412" lon="0.93357">
        <ele>184.6</ele>
        <time>2023-03-16T14:44:19.951Z</time>
      </trkpt>
      <trkpt lat="44.2413" lon="0.93365">
        <ele>183.5</ele>
        <time>2023-03-16T14:44:31.951Z</time>
      </trkpt>
      <trkpt lat="44.24141" lon="0.93391">
        <ele>183.8</ele>
        <time>2023-03-16T14:44:53.952Z</time>
      </trkpt>
      <trkpt lat="44.24158" lon="0.93413">
        <ele>182.4</ele>
        <time>2023-03-16T14:45:13.951Z</time>
      </trkpt>
      <trkpt lat="44.24165" lon="0.93418">
        <ele>180.6</ele>
        <time>2023-03-16T14:45:21.951Z</time>
      </trkpt>
      <trkpt lat="44.24168" lon="0.93418">
        <ele>180.1</ele>
        <time>2023-03-16T14:45:23.951Z</time>
      </trkpt>
      <trkpt lat="44.24172" lon="0.93426">
        <ele>180.6</ele>
        <time>2023-03-16T14:46:03.951Z</time>
      </trkpt>
      <trkpt lat="44.24174" lon="0.93423">
        <ele>180.2</ele>
        <time>2023-03-16T14:46:07.951Z</time>
      </trkpt>
      <trkpt lat="44.2418" lon="0.93424">
        <ele>179.8</ele>
        <time>2023-03-16T14:46:15.951Z</time>
      </trkpt>
      <trkpt lat="44.24189" lon="0.9343">
        <ele>179.8</ele>
        <time>2023-03-16T14:46:23.951Z</time>
      </trkpt>
      <trkpt lat="44.24191" lon="0.93435">
        <ele>180.2</ele>
        <time>2023-03-16T14:46:27.951Z</time>
      </trkpt>
      <trkpt lat="44.24198" lon="0.9344">
        <ele>180.8</ele>
        <time>2023-03-16T14:46:35.951Z</time>
      </trkpt>
      <trkpt lat="44.24208" lon="0.93438">
        <ele>181.2</ele>
        <time>2023-03-16T14:46:47.951Z</time>
      </trkpt>
      <trkpt lat="44.24212" lon="0.93421">
        <ele>179.2</ele>
        <time>2023-03-16T14:47:03.951Z</time>
      </trkpt>
      <trkpt lat="44.24212" lon="0.93413">
        <ele>178.2</ele>
        <time>2023-03-16T14:47:19.951Z</time>
      </trkpt>
      <trkpt lat="44.2423" lon="0.9335">
        <ele>171.9</ele>
        <time>2023-03-16T14:47:59.951Z</time>
      </trkpt>
      <trkpt lat="44.24232" lon="0.93337">
        <ele>170.8</ele>
        <time>2023-03-16T14:48:07.951Z</time>
      </trkpt>
      <trkpt lat="44.24237" lon="0.93326">
        <ele>170.4</ele>
        <time>2023-03-16T14:48:15.951Z</time>
      </trkpt>
      <trkpt lat="44.24243" lon="0.93304">
        <ele>168.3</ele>
        <time>2023-03-16T14:48:31.951Z</time>
      </trkpt>
      <trkpt lat="44.24258" lon="0.93265">
        <ele>166.2</ele>
        <time>2023-03-16T14:48:55.951Z</time>
      </trkpt>
      <trkpt lat="44.24262" lon="0.93242">
        <ele>165.2</ele>
        <time>2023-03-16T14:49:11.951Z</time>
      </trkpt>
      <trkpt lat="44.24262" lon="0.93229">
        <ele>164.3</ele>
        <time>2023-03-16T14:49:19.951Z</time>
      </trkpt>
      <trkpt lat="44.24264" lon="0.93223">
        <ele>164.1</ele>
        <time>2023-03-16T14:49:27.951Z</time>
      </trkpt>
      <trkpt lat="44.24266" lon="0.93216">
        <ele>163.7</ele>
        <time>2023-03-16T14:49:43.951Z</time>
      </trkpt>
      <trkpt lat="44.24268" lon="0.93203">
        <ele>162.5</ele>
        <time>2023-03-16T14:49:51.951Z</time>
      </trkpt>
      <trkpt lat="44.24277" lon="0.93192">
        <ele>161</ele>
        <time>2023-03-16T14:51:43.951Z</time>
      </trkpt>
      <trkpt lat="44.24283" lon="0.93173">
        <ele>161</ele>
        <time>2023-03-16T14:51:59.951Z</time>
      </trkpt>
      <trkpt lat="44.24291" lon="0.9316">
        <ele>160.6</ele>
        <time>2023-03-16T14:52:15.951Z</time>
      </trkpt>
      <trkpt lat="44.24303" lon="0.93131">
        <ele>157.2</ele>
        <time>2023-03-16T14:52:35.951Z</time>
      </trkpt>
      <trkpt lat="44.24304" lon="0.93122">
        <ele>156.2</ele>
        <time>2023-03-16T14:52:39.951Z</time>
      </trkpt>
      <trkpt lat="44.24309" lon="0.9311">
        <ele>155.3</ele>
        <time>2023-03-16T14:52:47.951Z</time>
      </trkpt>
      <trkpt lat="44.2431" lon="0.93102">
        <ele>155.1</ele>
        <time>2023-03-16T14:52:55.951Z</time>
      </trkpt>
      <trkpt lat="44.24324" lon="0.93083">
        <ele>154.6</ele>
        <time>2023-03-16T14:53:19.951Z</time>
      </trkpt>
      <trkpt lat="44.24325" lon="0.93078">
        <ele>154.1</ele>
        <time>2023-03-16T14:53:23.951Z</time>
      </trkpt>
      <trkpt lat="44.24329" lon="0.93071">
        <ele>153.5</ele>
        <time>2023-03-16T14:53:31.951Z</time>
      </trkpt>
      <trkpt lat="44.24336" lon="0.93048">
        <ele>151.8</ele>
        <time>2023-03-16T14:53:47.951Z</time>
      </trkpt>
      <trkpt lat="44.24336" lon="0.9304">
        <ele>151.2</ele>
        <time>2023-03-16T14:53:51.951Z</time>
      </trkpt>
      <trkpt lat="44.24352" lon="0.92996">
        <ele>150.5</ele>
        <time>2023-03-16T14:54:23.951Z</time>
      </trkpt>
      <trkpt lat="44.24351" lon="0.92987">
        <ele>149.7</ele>
        <time>2023-03-16T14:54:27.951Z</time>
      </trkpt>
      <trkpt lat="44.24366" lon="0.92942">
        <ele>147.6</ele>
        <time>2023-03-16T14:54:59.951Z</time>
      </trkpt>
      <trkpt lat="44.24372" lon="0.92931">
        <ele>147.4</ele>
        <time>2023-03-16T14:55:07.951Z</time>
      </trkpt>
      <trkpt lat="44.2438" lon="0.92908">
        <ele>146</ele>
        <time>2023-03-16T14:55:23.951Z</time>
      </trkpt>
      <trkpt lat="44.24398" lon="0.92869">
        <ele>143.7</ele>
        <time>2023-03-16T14:55:51.951Z</time>
      </trkpt>
      <trkpt lat="44.24401" lon="0.92867">
        <ele>143.9</ele>
        <time>2023-03-16T14:55:53.951Z</time>
      </trkpt>
      <trkpt lat="44.24406" lon="0.92839">
        <ele>141.3</ele>
        <time>2023-03-16T14:56:09.951Z</time>
      </trkpt>
      <trkpt lat="44.24412" lon="0.92818">
        <ele>139.3</ele>
        <time>2023-03-16T14:56:25.951Z</time>
      </trkpt>
      <trkpt lat="44.24418" lon="0.92785">
        <ele>137.6</ele>
        <time>2023-03-16T14:56:49.951Z</time>
      </trkpt>
      <trkpt lat="44.24419" lon="0.92766">
        <ele>136.6</ele>
        <time>2023-03-16T14:57:01.951Z</time>
      </trkpt>
      <trkpt lat="44.24425" lon="0.92737">
        <ele>136</ele>
        <time>2023-03-16T14:57:17.951Z</time>
      </trkpt>
      <trkpt lat="44.24427" lon="0.9273">
        <ele>136</ele>
        <time>2023-03-16T14:57:25.951Z</time>
      </trkpt>
      <trkpt lat="44.24428" lon="0.92722">
        <ele>135.6</ele>
        <time>2023-03-16T14:57:33.951Z</time>
      </trkpt>
      <trkpt lat="44.24432" lon="0.92717">
        <ele>135.7</ele>
        <time>2023-03-16T14:57:37.951Z</time>
      </trkpt>
      <trkpt lat="44.24436" lon="0.92701">
        <ele>134.4</ele>
        <time>2023-03-16T14:57:45.951Z</time>
      </trkpt>
      <trkpt lat="44.24445" lon="0.92679">
        <ele>133.6</ele>
        <time>2023-03-16T14:58:01.951Z</time>
      </trkpt>
      <trkpt lat="44.24457" lon="0.9264">
        <ele>133</ele>
        <time>2023-03-16T14:58:35.951Z</time>
      </trkpt>
      <trkpt lat="44.24458" lon="0.92632">
        <ele>132.8</ele>
        <time>2023-03-16T14:58:39.951Z</time>
      </trkpt>
      <trkpt lat="44.2446" lon="0.92628">
        <ele>132.9</ele>
        <time>2023-03-16T14:58:43.951Z</time>
      </trkpt>
      <trkpt lat="44.24464" lon="0.9262">
        <ele>132.7</ele>
        <time>2023-03-16T15:00:51.951Z</time>
      </trkpt>
      <trkpt lat="44.24495" lon="0.92584">
        <ele>130.1</ele>
        <time>2023-03-16T15:02:03.951Z</time>
      </trkpt>
      <trkpt lat="44.24527" lon="0.92556">
        <ele>127.9</ele>
        <time>2023-03-16T15:02:35.951Z</time>
      </trkpt>
      <trkpt lat="44.24543" lon="0.92537">
        <ele>127.5</ele>
        <time>2023-03-16T15:02:51.951Z</time>
      </trkpt>
      <trkpt lat="44.24566" lon="0.92494">
        <ele>124.3</ele>
        <time>2023-03-16T15:03:23.951Z</time>
      </trkpt>
      <trkpt lat="44.2458" lon="0.92474">
        <ele>123.1</ele>
        <time>2023-03-16T15:03:39.951Z</time>
      </trkpt>
      <trkpt lat="44.24601" lon="0.92433">
        <ele>121.2</ele>
        <time>2023-03-16T15:04:11.951Z</time>
      </trkpt>
      <trkpt lat="44.24619" lon="0.92388">
        <ele>122.3</ele>
        <time>2023-03-16T15:04:43.951Z</time>
      </trkpt>
      <trkpt lat="44.24625" lon="0.92381">
        <ele>122.6</ele>
        <time>2023-03-16T15:04:59.951Z</time>
      </trkpt>
      <trkpt lat="44.24634" lon="0.92375">
        <ele>122.9</ele>
        <time>2023-03-16T15:05:15.951Z</time>
      </trkpt>
      <trkpt lat="44.24669" lon="0.92312">
        <ele>126.4</ele>
        <time>2023-03-16T15:06:11.951Z</time>
      </trkpt>
      <trkpt lat="44.24682" lon="0.92281">
        <ele>129.3</ele>
        <time>2023-03-16T15:06:35.951Z</time>
      </trkpt>
      <trkpt lat="44.24689" lon="0.92261">
        <ele>130.1</ele>
        <time>2023-03-16T15:06:51.951Z</time>
      </trkpt>
      <trkpt lat="44.24699" lon="0.92246">
        <ele>131.3</ele>
        <time>2023-03-16T15:07:07.951Z</time>
      </trkpt>
      <trkpt lat="44.24702" lon="0.92236">
        <ele>132.5</ele>
        <time>2023-03-16T15:07:15.951Z</time>
      </trkpt>
      <trkpt lat="44.24704" lon="0.92227">
        <ele>133</ele>
        <time>2023-03-16T15:07:23.951Z</time>
      </trkpt>
      <trkpt lat="44.24714" lon="0.92209">
        <ele>134</ele>
        <time>2023-03-16T15:07:39.951Z</time>
      </trkpt>
      <trkpt lat="44.24716" lon="0.92198">
        <ele>133.1</ele>
        <time>2023-03-16T15:07:45.951Z</time>
      </trkpt>
      <trkpt lat="44.24721" lon="0.92196">
        <ele>133.1</ele>
        <time>2023-03-16T15:07:49.951Z</time>
      </trkpt>
      <trkpt lat="44.2473" lon="0.92182">
        <ele>135</ele>
        <time>2023-03-16T15:08:01.951Z</time>
      </trkpt>
      <trkpt lat="44.24731" lon="0.92177">
        <ele>135.2</ele>
        <time>2023-03-16T15:08:05.951Z</time>
      </trkpt>
      <trkpt lat="44.24735" lon="0.92174">
        <ele>135.7</ele>
        <time>2023-03-16T15:08:09.951Z</time>
      </trkpt>
      <trkpt lat="44.24741" lon="0.92155">
        <ele>135.6</ele>
        <time>2023-03-16T15:08:21.951Z</time>
      </trkpt>
      <trkpt lat="44.24748" lon="0.9214">
        <ele>135.1</ele>
        <time>2023-03-16T15:08:33.951Z</time>
      </trkpt>
      <trkpt lat="44.24761" lon="0.92124">
        <ele>136.9</ele>
        <time>2023-03-16T15:08:49.951Z</time>
      </trkpt>
      <trkpt lat="44.24765" lon="0.92117">
        <ele>136.9</ele>
        <time>2023-03-16T15:08:55.951Z</time>
      </trkpt>
      <trkpt lat="44.24774" lon="0.92107">
        <ele>137.1</ele>
        <time>2023-03-16T15:09:05.951Z</time>
      </trkpt>
      <trkpt lat="44.24781" lon="0.92095">
        <ele>137.8</ele>
        <time>2023-03-16T15:09:15.951Z</time>
      </trkpt>
      <trkpt lat="44.24783" lon="0.92091">
        <ele>137.9</ele>
        <time>2023-03-16T15:09:19.951Z</time>
      </trkpt>
      <trkpt lat="44.2479" lon="0.92088">
        <ele>138.1</ele>
        <time>2023-03-16T15:09:25.951Z</time>
      </trkpt>
      <trkpt lat="44.24792" lon="0.92083">
        <ele>138</ele>
        <time>2023-03-16T15:09:29.951Z</time>
      </trkpt>
      <trkpt lat="44.24813" lon="0.9207">
        <ele>139.5</ele>
        <time>2023-03-16T15:09:53.951Z</time>
      </trkpt>
      <trkpt lat="44.24816" lon="0.92066">
        <ele>139.9</ele>
        <time>2023-03-16T15:09:57.951Z</time>
      </trkpt>
      <trkpt lat="44.24822" lon="0.92062">
        <ele>140.4</ele>
        <time>2023-03-16T15:10:03.951Z</time>
      </trkpt>
      <trkpt lat="44.24831" lon="0.9206">
        <ele>140.9</ele>
        <time>2023-03-16T15:10:11.951Z</time>
      </trkpt>
      <trkpt lat="44.24835" lon="0.92059">
        <ele>141</ele>
        <time>2023-03-16T15:10:15.951Z</time>
      </trkpt>
      <trkpt lat="44.24843" lon="0.92052">
        <ele>141.4</ele>
        <time>2023-03-16T15:10:23.951Z</time>
      </trkpt>
      <trkpt lat="44.24863" lon="0.92052">
        <ele>141.5</ele>
        <time>2023-03-16T15:10:39.951Z</time>
      </trkpt>
      <trkpt lat="44.24868" lon="0.92053">
        <ele>141.7</ele>
        <time>2023-03-16T15:10:43.951Z</time>
      </trkpt>
      <trkpt lat="44.24877" lon="0.92061">
        <ele>142.9</ele>
        <time>2023-03-16T15:10:49.951Z</time>
      </trkpt>
      <trkpt lat="44.24886" lon="0.92062">
        <ele>143.7</ele>
        <time>2023-03-16T15:10:57.951Z</time>
      </trkpt>
      <trkpt lat="44.24901" lon="0.92057">
        <ele>144.6</ele>
        <time>2023-03-16T15:11:13.951Z</time>
      </trkpt>
      <trkpt lat="44.24908" lon="0.92052">
        <ele>145</ele>
        <time>2023-03-16T15:11:21.951Z</time>
      </trkpt>
      <trkpt lat="44.2492" lon="0.92048">
        <ele>146.3</ele>
        <time>2023-03-16T15:11:33.951Z</time>
      </trkpt>
      <trkpt lat="44.24933" lon="0.92036">
        <ele>147.2</ele>
        <time>2023-03-16T15:11:49.951Z</time>
      </trkpt>
      <trkpt lat="44.24938" lon="0.92029">
        <ele>146.8</ele>
        <time>2023-03-16T15:11:57.951Z</time>
      </trkpt>
      <trkpt lat="44.24949" lon="0.92021">
        <ele>147.9</ele>
        <time>2023-03-16T15:12:09.951Z</time>
      </trkpt>
      <trkpt lat="44.24963" lon="0.92006">
        <ele>150.1</ele>
        <time>2023-03-16T15:12:25.951Z</time>
      </trkpt>
      <trkpt lat="44.2497" lon="0.9199">
        <ele>149.9</ele>
        <time>2023-03-16T15:12:37.951Z</time>
      </trkpt>
      <trkpt lat="44.24981" lon="0.91976">
        <ele>151.8</ele>
        <time>2023-03-16T15:12:51.951Z</time>
      </trkpt>
      <trkpt lat="44.24984" lon="0.91975">
        <ele>152.8</ele>
        <time>2023-03-16T15:12:55.951Z</time>
      </trkpt>
      <trkpt lat="44.25008" lon="0.91922">
        <ele>154.4</ele>
        <time>2023-03-16T15:13:35.951Z</time>
      </trkpt>
      <trkpt lat="44.25009" lon="0.91916">
        <ele>154.1</ele>
        <time>2023-03-16T15:13:39.951Z</time>
      </trkpt>
      <trkpt lat="44.25012" lon="0.91912">
        <ele>154.8</ele>
        <time>2023-03-16T15:13:43.951Z</time>
      </trkpt>
      <trkpt lat="44.25012" lon="0.91905">
        <ele>154.7</ele>
        <time>2023-03-16T15:13:47.951Z</time>
      </trkpt>
      <trkpt lat="44.25019" lon="0.91887">
        <ele>155</ele>
        <time>2023-03-16T15:13:59.951Z</time>
      </trkpt>
      <trkpt lat="44.25026" lon="0.91879">
        <ele>155.4</ele>
        <time>2023-03-16T15:14:07.951Z</time>
      </trkpt>
      <trkpt lat="44.25033" lon="0.91874">
        <ele>156.6</ele>
        <time>2023-03-16T15:14:15.951Z</time>
      </trkpt>
      <trkpt lat="44.25038" lon="0.91865">
        <ele>157.1</ele>
        <time>2023-03-16T15:14:43.951Z</time>
      </trkpt>
      <trkpt lat="44.25049" lon="0.91849">
        <ele>157.8</ele>
        <time>2023-03-16T15:16:19.951Z</time>
      </trkpt>
      <trkpt lat="44.25052" lon="0.91846">
        <ele>158</ele>
        <time>2023-03-16T15:16:23.951Z</time>
      </trkpt>
      <trkpt lat="44.25061" lon="0.91827">
        <ele>159.2</ele>
        <time>2023-03-16T15:16:39.951Z</time>
      </trkpt>
      <trkpt lat="44.25074" lon="0.91813">
        <ele>162.4</ele>
        <time>2023-03-16T15:16:55.951Z</time>
      </trkpt>
      <trkpt lat="44.25076" lon="0.91803">
        <ele>162.1</ele>
        <time>2023-03-16T15:17:03.951Z</time>
      </trkpt>
      <trkpt lat="44.25085" lon="0.91786">
        <ele>163.1</ele>
        <time>2023-03-16T15:17:19.951Z</time>
      </trkpt>
      <trkpt lat="44.25091" lon="0.91781">
        <ele>164.6</ele>
        <time>2023-03-16T15:17:27.951Z</time>
      </trkpt>
      <trkpt lat="44.25095" lon="0.91771">
        <ele>165.3</ele>
        <time>2023-03-16T15:17:35.951Z</time>
      </trkpt>
      <trkpt lat="44.251" lon="0.91767">
        <ele>166.7</ele>
        <time>2023-03-16T15:17:43.951Z</time>
      </trkpt>
      <trkpt lat="44.25102" lon="0.91763">
        <ele>167.2</ele>
        <time>2023-03-16T15:17:47.951Z</time>
      </trkpt>
      <trkpt lat="44.25107" lon="0.91762">
        <ele>168.7</ele>
        <time>2023-03-16T15:17:51.951Z</time>
      </trkpt>
      <trkpt lat="44.25116" lon="0.91756">
        <ele>170.7</ele>
        <time>2023-03-16T15:18:07.951Z</time>
      </trkpt>
      <trkpt lat="44.2512" lon="0.91755">
        <ele>171.8</ele>
        <time>2023-03-16T15:18:23.951Z</time>
      </trkpt>
      <trkpt lat="44.25126" lon="0.91757">
        <ele>173.7</ele>
        <time>2023-03-16T15:18:55.951Z</time>
      </trkpt>
      <trkpt lat="44.25135" lon="0.91756">
        <ele>176.2</ele>
        <time>2023-03-16T15:19:11.951Z</time>
      </trkpt>
      <trkpt lat="44.25145" lon="0.91751">
        <ele>178.1</ele>
        <time>2023-03-16T15:19:27.951Z</time>
      </trkpt>
      <trkpt lat="44.25148" lon="0.91751">
        <ele>178.7</ele>
        <time>2023-03-16T15:19:31.951Z</time>
      </trkpt>
      <trkpt lat="44.25167" lon="0.91734">
        <ele>179.8</ele>
        <time>2023-03-16T15:19:57.951Z</time>
      </trkpt>
      <trkpt lat="44.25173" lon="0.91731">
        <ele>180.9</ele>
        <time>2023-03-16T15:20:05.951Z</time>
      </trkpt>
      <trkpt lat="44.25181" lon="0.9173">
        <ele>182.9</ele>
        <time>2023-03-16T15:20:13.951Z</time>
      </trkpt>
      <trkpt lat="44.25193" lon="0.91725">
        <ele>185.2</ele>
        <time>2023-03-16T15:20:29.951Z</time>
      </trkpt>
      <trkpt lat="44.25216" lon="0.91726">
        <ele>190.2</ele>
        <time>2023-03-16T15:20:57.951Z</time>
      </trkpt>
      <trkpt lat="44.25225" lon="0.91728">
        <ele>192.3</ele>
        <time>2023-03-16T15:23:41.951Z</time>
      </trkpt>
      <trkpt lat="44.2526" lon="0.91719">
        <ele>196</ele>
        <time>2023-03-16T15:24:13.951Z</time>
      </trkpt>
      <trkpt lat="44.25277" lon="0.9172">
        <ele>198.6</ele>
        <time>2023-03-16T15:24:29.951Z</time>
      </trkpt>
      <trkpt lat="44.25313" lon="0.91732">
        <ele>202.3</ele>
        <time>2023-03-16T15:25:01.951Z</time>
      </trkpt>
      <trkpt lat="44.25366" lon="0.91747">
        <ele>208.1</ele>
        <time>2023-03-16T15:25:49.951Z</time>
      </trkpt>
      <trkpt lat="44.25383" lon="0.9175">
        <ele>209.5</ele>
        <time>2023-03-16T15:26:05.951Z</time>
      </trkpt>
      <trkpt lat="44.254" lon="0.91746">
        <ele>211.6</ele>
        <time>2023-03-16T15:26:21.951Z</time>
      </trkpt>
      <trkpt lat="44.25417" lon="0.91738">
        <ele>213.4</ele>
        <time>2023-03-16T15:26:37.951Z</time>
      </trkpt>
      <trkpt lat="44.25434" lon="0.91731">
        <ele>215.1</ele>
      </trkpt>
      <trkpt lat="44.25442" lon="0.9172">
        <ele>215.3</ele>
        <time>2023-03-16T15:27:01.951Z</time>
      </trkpt>
      <trkpt lat="44.2547" lon="0.91697">
        <ele>218.6</ele>
        <time>2023-03-16T15:29:39.951Z</time>
      </trkpt>
      <trkpt lat="44.25474" lon="0.91635">
        <ele>217.1</ele>
      </trkpt>
      <trkpt lat="44.25499" lon="0.91541">
        <ele>216.4</ele>
      </trkpt>
      <trkpt lat="44.25514" lon="0.91508">
        <ele>216</ele>
      </trkpt>
      <trkpt lat="44.25554" lon="0.91489">
        <ele>216.2</ele>
      </trkpt>
      <trkpt lat="44.25607" lon="0.91455">
        <ele>216.1</ele>
      </trkpt>
      <trkpt lat="44.25648" lon="0.91429">
        <ele>215.5</ele>
      </trkpt>
      <trkpt lat="44.25703" lon="0.91358">
        <ele>212.5</ele>
      </trkpt>
      <trkpt lat="44.25808" lon="0.91236">
        <ele>205.6</ele>
      </trkpt>
      <trkpt lat="44.25869" lon="0.91176">
        <ele>205</ele>
      </trkpt>
      <trkpt lat="44.25899" lon="0.91118">
        <ele>205.7</ele>
      </trkpt>
      <trkpt lat="44.25969" lon="0.91079">
        <ele>205.7</ele>
      </trkpt>
      <trkpt lat="44.2604" lon="0.91039">
        <ele>199.6</ele>
      </trkpt>
      <trkpt lat="44.26094" lon="0.90991">
        <ele>200.1</ele>
      </trkpt>
      <trkpt lat="44.26183" lon="0.90966">
        <ele>210.3</ele>
      </trkpt>
      <trkpt lat="44.26186" lon="0.91096">
        <ele>205.4</ele>
      </trkpt>
      <trkpt lat="44.26166" lon="0.91152">
        <ele>202.4</ele>
      </trkpt>
      <trkpt lat="44.26138" lon="0.91262">
        <ele>202</ele>
      </trkpt>
      <trkpt lat="44.26129" lon="0.91363">
        <ele>204</ele>
      </trkpt>
      <trkpt lat="44.26149" lon="0.91515">
        <ele>206.7</ele>
      </trkpt>
      <trkpt lat="44.26141" lon="0.91564">
        <ele>207.6</ele>
      </trkpt>
      <trkpt lat="44.26068" lon="0.91721">
        <ele>209.6</ele>
      </trkpt>
      <trkpt lat="44.25979" lon="0.91854">
        <ele>213.8</ele>
      </trkpt>
      <trkpt lat="44.25894" lon="0.91942">
        <ele>214.7</ele>
      </trkpt>
      <trkpt lat="44.25776" lon="0.92058">
        <ele>219.8</ele>
      </trkpt>
      <trkpt lat="44.25805" lon="0.92189">
        <ele>220.7</ele>
        <time>2023-03-16T15:59:51.951Z</time>
      </trkpt>
      <trkpt lat="44.25817" lon="0.92234">
        <ele>221.4</ele>
        <time>2023-03-16T16:00:07.951Z</time>
      </trkpt>
      <trkpt lat="44.25812" lon="0.9225">
        <ele>221.2</ele>
        <time>2023-03-16T16:00:31.951Z</time>
      </trkpt>
      <trkpt lat="44.25796" lon="0.92269">
        <ele>220.7</ele>
        <time>2023-03-16T16:00:47.951Z</time>
      </trkpt>
      <trkpt lat="44.25779" lon="0.92281">
        <ele>220.2</ele>
        <time>2023-03-16T16:01:03.951Z</time>
      </trkpt>
      <trkpt lat="44.25757" lon="0.92289">
        <ele>218.9</ele>
        <time>2023-03-16T16:01:19.951Z</time>
      </trkpt>
      <trkpt lat="44.25715" lon="0.92299">
        <ele>216.3</ele>
        <time>2023-03-16T16:01:51.951Z</time>
      </trkpt>
      <trkpt lat="44.25694" lon="0.92299">
        <ele>214.7</ele>
        <time>2023-03-16T16:02:07.951Z</time>
      </trkpt>
      <trkpt lat="44.25683" lon="0.92297">
        <ele>213.9</ele>
        <time>2023-03-16T16:02:15.951Z</time>
      </trkpt>
      <trkpt lat="44.25662" lon="0.92287">
        <ele>212</ele>
        <time>2023-03-16T16:02:31.951Z</time>
      </trkpt>
      <trkpt lat="44.25642" lon="0.92275">
        <ele>210.1</ele>
        <time>2023-03-16T16:02:47.951Z</time>
      </trkpt>
      <trkpt lat="44.25622" lon="0.92269">
        <ele>208.8</ele>
        <time>2023-03-16T16:03:03.951Z</time>
      </trkpt>
      <trkpt lat="44.2558" lon="0.92273">
        <ele>206.5</ele>
        <time>2023-03-16T16:03:35.951Z</time>
      </trkpt>
      <trkpt lat="44.25562" lon="0.92285">
        <ele>204.9</ele>
        <time>2023-03-16T16:03:51.951Z</time>
      </trkpt>
      <trkpt lat="44.25534" lon="0.92314">
        <ele>202.1</ele>
        <time>2023-03-16T16:04:15.951Z</time>
      </trkpt>
      <trkpt lat="44.25523" lon="0.92318">
        <ele>201</ele>
        <time>2023-03-16T16:04:23.951Z</time>
      </trkpt>
      <trkpt lat="44.25511" lon="0.92318">
        <ele>200</ele>
        <time>2023-03-16T16:04:31.951Z</time>
      </trkpt>
      <trkpt lat="44.25505" lon="0.92316">
        <ele>199.4</ele>
        <time>2023-03-16T16:04:35.951Z</time>
      </trkpt>
      <trkpt lat="44.25493" lon="0.92348">
        <ele>198</ele>
        <time>2023-03-16T16:04:43.951Z</time>
      </trkpt>
    </trkseg>
  </trk>
</gpx>